createdAt,value
2018-01-03T00:01:01.338Z,5.5
2018-01-03T00:02:03.434Z,5.3
2018-01-03T00:03:05.567Z,5.9
2018-01-03T00:04:07.773Z,5.1
2018-01-03T00:05:09.896Z,4.9
2018-01-03T00:06:12.036Z,5.2
2018-01-03T00:07:14.072Z,5.1
2018-01-03T00:08:15.969Z,4.9
2018-01-03T00:09:24.192Z,4.5
2018-01-03T00:10:26.030Z,4.6
2018-01-03T00:11:27.933Z,5.1
2018-01-03T00:12:30.056Z,4.5
2018-01-03T00:13:31.961Z,4.8
2018-01-03T00:14:34.180Z,4.2
2018-01-03T00:15:37.113Z,4.4
2018-01-03T00:16:38.986Z,4.6
2018-01-03T00:17:40.950Z,4.9
2018-01-03T00:18:42.834Z,4.1
2018-01-03T00:19:44.736Z,4.2
2018-01-03T00:20:47.329Z,3.6
2018-01-03T00:21:49.251Z,4.3
2018-01-03T00:22:51.167Z,4.1
2018-01-03T00:23:53.852Z,3.5
2018-01-03T00:24:56.621Z,3.8
2018-01-03T00:25:58.489Z,3.3
2018-01-03T00:27:00.364Z,3.0
2018-01-03T00:28:02.221Z,3.7
2018-01-03T00:29:04.022Z,3.0
2018-01-03T00:30:06.199Z,3.2
2018-01-03T00:31:08.084Z,2.8
2018-01-03T00:32:09.968Z,2.4
2018-01-03T00:33:11.941Z,2.6
2018-01-03T00:34:13.946Z,2.4
2018-01-03T00:35:15.912Z,2.5
2018-01-03T00:36:18.371Z,2.4
2018-01-03T00:37:21.004Z,1.9
2018-01-03T00:38:22.906Z,2.2
2018-01-03T00:39:24.817Z,2.1
2018-01-03T00:40:26.794Z,1.9
2018-01-03T00:41:28.647Z,2.0
2018-01-03T00:42:30.475Z,1.8
2018-01-03T00:43:32.795Z,2.0
2018-01-03T00:44:34.754Z,2.1
2018-01-03T00:46:48.484Z,1.9
2018-01-03T05:27:31.093Z,0.5
2018-01-03T05:28:32.739Z,0.7
2018-01-03T05:29:34.645Z,0.8
2018-01-03T05:30:36.476Z,0.6
2018-01-03T05:31:38.349Z,0.7
2018-01-03T05:32:40.233Z,0.7
2018-01-03T05:33:42.372Z,0.6
2018-01-03T05:34:44.429Z,0.7
2018-01-03T05:35:46.479Z,0.7
2018-01-03T05:36:48.536Z,0.9
2018-01-03T05:37:50.465Z,0.9
2018-01-03T05:38:52.305Z,0.7
2018-01-03T05:39:54.445Z,0.7
2018-01-03T05:40:56.464Z,0.7
2018-01-03T05:41:58.468Z,0.8
2018-01-03T05:43:00.644Z,0.7
2018-01-03T05:44:02.810Z,0.8
2018-01-03T05:45:04.905Z,1.0
2018-01-03T05:46:07.124Z,0.8
2018-01-03T05:47:09.222Z,0.7
2018-01-03T05:48:11.297Z,0.8
2018-01-03T05:49:13.495Z,0.8
2018-01-03T05:50:15.770Z,0.9
2018-01-03T05:51:17.862Z,1.0
2018-01-03T05:52:19.872Z,1.0
2018-01-03T05:53:21.682Z,1.1
2018-01-03T05:54:24.009Z,1.1
2018-01-03T05:55:26.203Z,1.1
2018-01-03T05:56:28.209Z,1.3
2018-01-03T05:57:30.154Z,1.3
2018-01-03T05:58:32.260Z,1.3
2018-01-03T05:59:34.280Z,1.4
2018-01-03T06:00:36.199Z,1.2
2018-01-03T06:01:38.417Z,1.5
2018-01-03T06:02:40.348Z,1.4
2018-01-03T06:03:42.299Z,1.3
2018-01-03T06:04:44.588Z,1.4
2018-01-03T06:05:46.593Z,1.7
2018-01-03T06:06:48.525Z,1.2
2018-01-03T06:07:50.617Z,1.4
2018-01-03T06:08:52.619Z,1.3
2018-01-03T06:09:54.693Z,1.3
2018-01-03T06:10:56.605Z,1.3
2018-01-03T06:11:58.509Z,1.5
2018-01-03T06:13:00.459Z,1.3
2018-01-03T06:14:02.357Z,1.3
2018-01-03T06:15:04.308Z,1.3
2018-01-03T06:16:06.380Z,1.4
2018-01-03T06:17:08.796Z,1.4
2018-01-03T06:18:10.793Z,1.3
2018-01-03T06:19:12.687Z,1.1
2018-01-03T06:20:14.673Z,1.2
2018-01-03T06:21:16.618Z,1.3
2018-01-03T06:22:18.700Z,1.4
2018-01-03T06:23:20.750Z,1.4
2018-01-03T06:24:22.749Z,1.6
2018-01-03T06:25:24.690Z,1.6
2018-01-03T06:26:26.711Z,1.6
2018-01-03T06:27:28.855Z,1.6
2018-01-03T06:28:31.111Z,1.4
2018-01-03T06:29:33.350Z,1.5
2018-01-03T06:30:35.428Z,1.5
2018-01-03T06:31:37.463Z,1.6
2018-01-03T06:32:39.414Z,1.8
2018-01-03T06:33:41.618Z,1.8
2018-01-03T06:34:43.608Z,1.7
2018-01-03T06:35:45.867Z,1.7
2018-01-03T06:36:47.851Z,1.6
2018-01-03T06:37:49.860Z,1.9
2018-01-03T06:38:51.833Z,2.0
2018-01-03T06:39:53.996Z,1.9
2018-01-03T06:40:56.094Z,1.7
2018-01-03T06:41:58.092Z,2.1
2018-01-03T06:43:00.274Z,1.9
2018-01-03T06:44:02.466Z,2.0
2018-01-03T06:45:04.482Z,1.8
2018-01-03T06:46:06.510Z,2.3
2018-01-03T06:47:08.827Z,1.7
2018-01-03T06:48:11.053Z,1.8
2018-01-03T06:49:13.164Z,2.0
2018-01-03T06:50:15.288Z,2.0
2018-01-03T06:51:17.425Z,1.9
2018-01-03T06:52:19.480Z,2.1
2018-01-03T06:53:21.772Z,2.4
2018-01-03T06:54:23.951Z,2.1
2018-01-03T06:55:26.048Z,2.1
2018-01-03T06:56:28.011Z,2.0
2018-01-03T06:57:30.053Z,2.1
2018-01-03T06:58:32.223Z,2.2
2018-01-03T06:59:34.529Z,2.2
2018-01-03T07:00:36.483Z,2.5
2018-01-03T07:01:38.566Z,2.3
2018-01-03T07:02:40.764Z,2.8
2018-01-03T07:03:42.756Z,2.5
2018-01-03T07:04:44.901Z,2.0
2018-01-03T07:05:47.144Z,2.4
2018-01-03T07:06:49.263Z,2.5
2018-01-03T07:07:51.396Z,2.3
2018-01-03T07:08:53.541Z,2.7
2018-01-03T07:09:55.616Z,2.7
2018-01-03T07:10:57.605Z,2.9
2018-01-03T07:11:59.779Z,2.6
2018-01-03T07:13:01.757Z,2.9
2018-01-03T07:14:03.924Z,3.1
2018-01-03T07:15:06.080Z,2.8
2018-01-03T07:16:08.171Z,2.7
2018-01-03T07:17:10.357Z,2.9
2018-01-03T07:18:12.366Z,3.0
2018-01-03T07:19:14.390Z,3.2
2018-01-03T07:20:16.535Z,2.9
2018-01-03T07:21:18.454Z,2.6
2018-01-03T07:22:20.605Z,2.6
2018-01-03T07:23:22.574Z,3.3
2018-01-03T07:24:24.628Z,2.3
2018-01-03T07:25:27.054Z,2.6
2018-01-03T07:26:29.242Z,3.1
2018-01-03T07:27:31.103Z,3.0
2018-01-03T07:28:33.047Z,2.5
2018-01-03T07:29:34.851Z,1.5
2018-01-03T07:30:36.893Z,1.4
2018-01-03T07:31:38.927Z,1.2
2018-01-03T07:32:41.075Z,1.4
2018-01-03T07:33:43.178Z,1.4
2018-01-03T07:34:45.150Z,1.5
2018-01-03T07:35:47.062Z,1.4
2018-01-03T07:36:49.071Z,1.5
2018-01-03T07:37:51.034Z,1.5
2018-01-03T07:38:52.878Z,1.6
2018-01-03T07:39:55.144Z,1.6
2018-01-03T07:40:57.323Z,2.1
2018-01-03T07:41:59.437Z,1.8
2018-01-03T07:43:01.496Z,1.8
2018-01-03T07:44:03.504Z,1.6
2018-01-03T07:45:05.704Z,1.8
2018-01-03T07:46:07.741Z,1.7
2018-01-03T07:47:09.792Z,2.0
2018-01-03T07:48:11.801Z,1.9
2018-01-03T07:49:13.724Z,1.6
2018-01-03T07:50:15.918Z,1.7
2018-01-03T07:51:18.158Z,1.9
2018-01-03T07:52:20.397Z,1.6
2018-01-03T07:53:22.526Z,1.8
2018-01-03T07:54:24.590Z,1.9
2018-01-03T07:55:26.770Z,1.6
2018-01-03T07:56:28.724Z,1.9
2018-01-03T07:57:31.110Z,1.7
2018-01-03T07:58:33.468Z,1.8
2018-01-03T07:59:35.649Z,2.2
2018-01-03T08:00:37.586Z,1.9
2018-01-03T08:01:39.711Z,2.1
2018-01-03T08:02:41.930Z,1.6
2018-01-03T08:03:43.921Z,1.9
2018-01-03T08:04:46.015Z,1.8
2018-01-03T08:05:48.085Z,1.6
2018-01-03T08:06:50.099Z,1.8
2018-01-03T08:07:52.220Z,1.9
2018-01-03T08:08:54.156Z,1.8
2018-01-03T08:09:56.312Z,1.8
2018-01-03T08:10:58.456Z,1.7
2018-01-03T08:12:00.781Z,2.2
2018-01-03T08:13:02.961Z,2.0
2018-01-03T08:14:05.186Z,1.9
2018-01-03T08:15:07.421Z,1.8
2018-01-03T08:16:09.376Z,1.9
2018-01-03T08:17:11.613Z,1.8
2018-01-03T08:18:13.788Z,1.7
2018-01-03T08:19:16.409Z,2.3
2018-01-03T08:20:18.543Z,2.2
2018-01-03T08:21:20.756Z,2.3
2018-01-03T08:22:22.761Z,2.3
2018-01-03T08:23:25.412Z,2.5
2018-01-03T08:24:27.656Z,2.3
2018-01-03T08:25:29.647Z,2.4
2018-01-03T08:26:31.743Z,2.4
2018-01-03T08:27:33.981Z,2.6
2018-01-03T08:28:36.054Z,2.2
2018-01-03T08:29:38.337Z,2.3
2018-01-03T08:30:40.996Z,2.7
2018-01-03T08:31:43.289Z,3.0
2018-01-03T08:32:45.307Z,2.5
2018-01-03T08:33:47.576Z,2.4
2018-01-03T08:34:49.609Z,2.7
2018-01-03T08:35:51.705Z,2.2
2018-01-03T08:36:53.770Z,2.8
2018-01-03T08:37:56.615Z,2.7
2018-01-03T08:38:58.654Z,3.2
2018-01-03T08:40:00.697Z,2.5
2018-01-03T08:41:02.749Z,2.8
2018-01-03T08:42:05.008Z,2.8
2018-01-03T08:43:07.252Z,3.0
2018-01-03T08:44:09.424Z,2.4
2018-01-03T08:45:11.419Z,2.9
2018-01-03T08:46:13.584Z,2.6
2018-01-03T08:47:15.672Z,2.8
2018-01-03T08:48:17.856Z,2.6
2018-01-03T08:49:20.060Z,2.3
2018-01-03T08:50:22.167Z,2.8
2018-01-03T08:51:24.217Z,2.7
2018-01-03T08:52:26.270Z,2.6
2018-01-03T08:53:28.539Z,3.3
2018-01-03T08:54:30.696Z,2.9
2018-01-03T08:55:32.787Z,2.7
2018-01-03T08:56:35.126Z,2.7
2018-01-03T08:57:37.086Z,2.9
2018-01-03T08:58:39.244Z,2.9
2018-01-03T08:59:41.507Z,2.4
2018-01-03T09:00:43.644Z,2.6
2018-01-03T09:01:45.691Z,2.7
2018-01-03T09:02:47.747Z,2.4
2018-01-03T09:03:50.394Z,2.6
2018-01-03T09:04:52.456Z,2.5
2018-01-03T09:05:54.711Z,2.6
2018-01-03T09:06:56.971Z,2.6
2018-01-03T09:07:59.051Z,2.6
2018-01-03T09:09:01.463Z,2.6
2018-01-03T09:10:03.720Z,2.6
2018-01-03T09:11:05.995Z,2.3
2018-01-03T09:12:08.128Z,2.5
2018-01-03T09:13:10.258Z,2.6
2018-01-03T09:14:12.474Z,2.4
2018-01-03T09:15:14.694Z,2.9
2018-01-03T09:16:16.824Z,2.4
2018-01-03T09:17:19.780Z,2.3
2018-01-03T09:18:21.847Z,2.9
2018-01-03T09:19:23.880Z,2.8
2018-01-03T09:20:26.104Z,2.7
2018-01-03T09:21:28.413Z,3.0
2018-01-03T09:22:30.658Z,3.1
2018-01-03T09:23:32.902Z,2.9
2018-01-03T09:24:35.120Z,3.1
2018-01-03T09:25:37.414Z,2.7
2018-01-03T09:26:39.598Z,2.9
2018-01-03T09:27:41.818Z,2.9
2018-01-03T09:28:44.101Z,3.4
2018-01-03T09:29:46.460Z,3.4
2018-01-03T09:30:48.479Z,3.5
2018-01-03T09:31:50.485Z,3.6
2018-01-03T09:32:52.544Z,3.0
2018-01-03T09:33:54.599Z,3.0
2018-01-03T09:34:57.566Z,3.1
2018-01-03T09:36:01.662Z,3.4
2018-01-03T09:37:04.023Z,3.4
2018-01-03T09:38:06.148Z,3.3
2018-01-03T09:39:08.191Z,2.9
2018-01-03T09:40:10.398Z,3.1
2018-01-03T09:41:12.783Z,3.0
2018-01-03T09:42:14.893Z,3.2
2018-01-03T09:43:17.247Z,3.2
2018-01-03T09:44:19.472Z,3.2
2018-01-03T09:45:21.499Z,3.1
2018-01-03T09:46:23.551Z,2.5
2018-01-03T09:47:25.669Z,2.7
2018-01-03T09:48:27.753Z,2.6
2018-01-03T09:49:30.004Z,2.8
2018-01-03T09:50:32.176Z,2.6
2018-01-03T09:51:34.386Z,2.8
2018-01-03T09:52:36.679Z,3.0
2018-01-03T09:53:38.903Z,2.6
2018-01-03T09:54:40.991Z,3.1
2018-01-03T09:55:43.232Z,3.1
2018-01-03T09:56:45.570Z,3.0
2018-01-03T09:57:47.854Z,2.6
2018-01-03T09:58:49.833Z,3.2
2018-01-03T09:59:52.075Z,2.7
2018-01-03T10:00:54.070Z,3.0
2018-01-03T10:01:56.129Z,3.4
2018-01-03T10:02:58.338Z,3.1
2018-01-03T10:04:00.446Z,3.1
2018-01-03T10:05:02.540Z,3.5
2018-01-03T10:06:04.721Z,3.6
2018-01-03T10:07:06.741Z,3.3
2018-01-03T10:08:08.815Z,3.4
2018-01-03T10:09:10.897Z,3.2
2018-01-03T10:10:13.128Z,3.5
2018-01-03T10:11:15.398Z,3.2
2018-01-03T10:12:17.441Z,3.5
2018-01-03T10:13:19.585Z,2.9
2018-01-03T10:14:21.705Z,3.3
2018-01-03T10:15:23.748Z,3.4
2018-01-03T10:16:25.834Z,3.8
2018-01-03T10:17:27.837Z,3.0
2018-01-03T10:18:29.856Z,3.5
2018-01-03T10:19:31.932Z,3.5
2018-01-03T10:20:33.828Z,3.5
2018-01-03T10:21:36.049Z,3.5
2018-01-03T10:22:38.145Z,3.3
2018-01-03T10:23:40.398Z,3.5
2018-01-03T10:24:42.452Z,3.2
2018-01-03T10:25:44.639Z,3.4
2018-01-03T10:26:46.929Z,3.7
2018-01-03T10:27:49.183Z,3.3
2018-01-03T10:28:51.449Z,3.5
2018-01-03T10:29:53.581Z,3.4
2018-01-03T10:30:55.712Z,3.2
2018-01-03T10:31:57.861Z,3.5
2018-01-03T10:33:00.095Z,3.2
2018-01-03T10:34:01.986Z,3.2
2018-01-03T10:35:04.318Z,3.0
2018-01-03T10:36:06.460Z,3.2
2018-01-03T10:37:08.508Z,3.3
2018-01-03T10:38:10.539Z,3.2
2018-01-03T10:39:12.860Z,3.1
2018-01-03T10:40:14.620Z,3.4
2018-01-03T10:41:16.549Z,3.0
2018-01-03T10:42:18.615Z,3.1
2018-01-03T10:43:20.636Z,3.8
2018-01-03T10:44:22.758Z,3.7
2018-01-03T10:45:24.977Z,3.2
2018-01-03T10:46:26.904Z,3.7
2018-01-03T10:47:29.138Z,3.3
2018-01-03T10:48:31.075Z,3.6
2018-01-03T10:49:33.091Z,3.5
2018-01-03T10:50:35.258Z,3.3
2018-01-03T10:51:37.282Z,4.0
2018-01-03T10:52:39.556Z,3.2
2018-01-03T10:53:41.608Z,3.6
2018-01-03T10:54:44.174Z,3.3
2018-01-03T10:55:46.140Z,4.0
2018-01-03T10:56:48.370Z,3.4
2018-01-03T10:57:50.462Z,3.4
2018-01-03T10:58:52.603Z,3.7
2018-01-03T10:59:54.692Z,3.6
2018-01-03T11:00:56.713Z,3.3
2018-01-03T11:01:58.512Z,3.6
2018-01-03T11:03:00.333Z,3.1
2018-01-03T11:04:02.221Z,3.5
2018-01-03T11:05:04.313Z,3.4
2018-01-03T11:06:06.556Z,3.4
2018-01-03T11:07:08.621Z,3.1
2018-01-03T11:08:10.483Z,3.6
2018-01-03T11:09:12.814Z,4.0
2018-01-03T11:10:14.952Z,3.5
2018-01-03T11:11:17.233Z,3.8
2018-01-03T11:12:19.726Z,3.8
2018-01-03T11:13:22.131Z,4.0
2018-01-03T11:14:24.475Z,4.0
2018-01-03T11:15:26.842Z,4.0
2018-01-03T11:16:29.281Z,3.2
2018-01-03T11:18:40.898Z,3.4
2018-01-03T11:19:43.423Z,3.7
2018-01-03T11:20:45.117Z,3.5
2018-01-03T11:21:46.823Z,3.4
2018-01-03T11:22:48.636Z,4.0
2018-01-03T11:23:50.545Z,3.2
2018-01-03T11:24:52.501Z,3.7
2018-01-03T11:25:54.461Z,3.8
2018-01-03T11:26:56.836Z,3.8
2018-01-03T11:28:00.026Z,3.9
2018-01-03T11:29:01.876Z,4.2
2018-01-03T11:30:04.516Z,3.4
2018-01-03T11:31:06.426Z,3.8
2018-01-03T11:32:09.117Z,3.8
2018-01-03T11:33:11.130Z,3.6
2018-01-03T11:34:13.066Z,3.7
2018-01-03T11:35:15.086Z,4.0
2018-01-03T11:36:17.174Z,2.9
2018-01-03T11:37:19.298Z,3.9
2018-01-03T11:38:22.463Z,4.3
2018-01-03T11:39:25.022Z,3.9
2018-01-03T11:40:27.254Z,3.8
2018-01-03T11:41:30.312Z,4.0
2018-01-03T11:42:32.353Z,3.7
2018-01-03T11:43:34.372Z,3.7
2018-01-03T11:44:36.305Z,3.3
2018-01-03T11:45:38.272Z,3.7
2018-01-03T11:46:42.859Z,3.4
2018-01-03T11:47:44.833Z,3.7
2018-01-03T11:48:46.821Z,3.9
2018-01-03T11:49:48.961Z,3.9
2018-01-03T11:50:51.134Z,3.6
2018-01-03T11:51:53.287Z,3.4
2018-01-03T11:52:56.610Z,3.8
2018-01-03T11:53:58.933Z,3.8
2018-01-03T11:55:01.281Z,3.5
2018-01-03T11:56:04.068Z,3.3
2018-01-03T11:57:05.935Z,3.1
2018-01-03T11:58:08.711Z,3.5
2018-01-03T11:59:10.635Z,3.5
2018-01-03T12:00:13.309Z,3.3
2018-01-03T12:01:15.274Z,3.7
2018-01-03T12:02:17.243Z,3.3
2018-01-03T12:03:19.135Z,3.8
2018-01-03T12:04:23.623Z,2.8
2018-01-03T12:05:25.528Z,3.7
2018-01-03T12:06:27.511Z,3.7
2018-01-03T12:07:29.699Z,3.6
2018-01-03T12:08:31.597Z,3.4
2018-01-03T12:09:40.142Z,3.6
2018-01-03T12:10:42.810Z,3.6
2018-01-03T12:11:44.765Z,3.5
2018-01-03T12:12:46.649Z,3.5
2018-01-03T12:13:48.431Z,3.7
2018-01-03T12:14:50.401Z,3.7
2018-01-03T12:15:52.389Z,3.6
2018-01-03T12:16:55.184Z,4.3
2018-01-03T12:17:57.161Z,4.1
2018-01-03T12:18:59.019Z,3.9
2018-01-03T12:20:01.059Z,3.2
2018-01-03T12:21:03.281Z,3.0
2018-01-03T12:22:05.173Z,4.1
2018-01-03T12:23:07.409Z,3.6
2018-01-03T12:24:09.289Z,3.7
2018-01-03T12:25:11.374Z,3.7
2018-01-03T12:26:13.463Z,3.8
2018-01-03T12:27:15.583Z,3.4
2018-01-03T12:28:17.688Z,3.8
2018-01-03T12:29:19.559Z,3.9
2018-01-03T12:30:21.312Z,3.4
2018-01-03T12:31:24.170Z,4.0
2018-01-03T12:32:26.745Z,3.9
2018-01-03T12:33:28.720Z,3.7
2018-01-03T12:34:30.483Z,3.1
2018-01-03T12:35:32.549Z,3.4
2018-01-03T12:36:34.624Z,3.4
2018-01-03T12:37:36.744Z,3.2
2018-01-03T12:38:38.688Z,3.5
2018-01-03T12:39:41.331Z,4.1
2018-01-03T12:40:44.270Z,3.0
2018-01-03T12:41:46.311Z,3.6
2018-01-03T12:42:48.832Z,3.4
2018-01-03T12:43:50.819Z,3.6
2018-01-03T12:44:52.750Z,3.8
2018-01-03T12:45:54.650Z,3.5
2018-01-03T12:46:56.573Z,3.5
2018-01-03T12:47:58.705Z,3.4
2018-01-03T12:49:00.527Z,3.8
2018-01-03T12:50:02.554Z,3.2
2018-01-03T12:51:04.655Z,3.5
2018-01-03T12:52:06.516Z,3.2
2018-01-03T12:53:11.274Z,3.6
2018-01-03T12:54:13.140Z,3.2
2018-01-03T12:55:15.171Z,3.7
2018-01-03T12:56:17.001Z,3.6
2018-01-03T12:57:19.666Z,3.3
2018-01-03T12:58:21.571Z,3.3
2018-01-03T12:59:23.745Z,3.8
2018-01-03T13:00:25.847Z,4.1
2018-01-03T13:01:27.873Z,3.5
2018-01-03T13:02:30.179Z,3.8
2018-01-03T13:03:33.984Z,3.8
2018-01-03T13:04:36.016Z,3.6
2018-01-03T13:05:37.970Z,3.7
2018-01-03T13:06:40.277Z,4.4
2018-01-03T13:07:41.976Z,3.6
2018-01-03T13:08:44.123Z,3.6
2018-01-03T13:09:45.949Z,3.3
2018-01-03T13:10:48.868Z,3.5
2018-01-03T13:11:50.876Z,4.1
2018-01-03T13:12:52.806Z,3.8
2018-01-03T13:13:54.484Z,4.3
2018-01-03T13:14:57.317Z,3.8
2018-01-03T13:15:59.208Z,3.2
2018-01-03T13:17:01.200Z,4.5
2018-01-03T13:18:03.804Z,3.8
2018-01-03T13:19:05.609Z,3.6
2018-01-03T13:20:07.481Z,4.0
2018-01-03T13:21:09.687Z,4.2
2018-01-03T13:22:11.592Z,4.3
2018-01-03T13:23:20.247Z,4.0
2018-01-03T13:24:22.046Z,3.6
2018-01-03T13:25:23.946Z,3.3
2018-01-03T13:26:26.052Z,3.8
2018-01-03T13:27:28.669Z,4.6
2018-01-03T13:28:30.474Z,4.2
2018-01-03T13:29:32.691Z,3.6
2018-01-03T13:30:34.708Z,4.1
2018-01-03T13:31:36.952Z,3.8
2018-01-03T13:32:39.549Z,3.8
2018-01-03T13:33:42.329Z,3.5
2018-01-03T13:34:44.393Z,3.7
2018-01-03T13:35:47.460Z,4.1
2018-01-03T13:36:49.775Z,4.0
2018-01-03T13:37:52.276Z,3.8
2018-01-03T13:38:54.408Z,3.8
2018-01-03T13:39:56.356Z,3.9
2018-01-03T13:40:58.334Z,3.5
2018-01-03T13:42:00.444Z,3.4
2018-01-03T13:43:03.050Z,3.4
2018-01-03T13:44:07.551Z,4.3
2018-01-03T13:45:09.335Z,3.8
2018-01-03T13:46:11.254Z,3.8
2018-01-03T13:47:13.399Z,3.9
2018-01-03T13:48:15.285Z,4.3
2018-01-03T13:49:19.617Z,4.2
2018-01-03T13:50:21.487Z,4.0
2018-01-03T13:51:23.612Z,4.6
2018-01-03T13:52:25.508Z,4.1
2018-01-03T13:53:27.399Z,3.7
2018-01-03T13:54:30.427Z,4.3
2018-01-03T13:55:32.296Z,4.0
2018-01-03T13:56:34.137Z,3.6
2018-01-03T13:57:42.623Z,3.7
2018-01-03T13:58:44.256Z,4.0
2018-01-03T13:59:46.157Z,3.8
2018-01-03T14:00:47.848Z,4.4
2018-01-03T14:01:49.770Z,4.3
2018-01-03T14:02:51.866Z,4.2
2018-01-03T14:03:54.770Z,4.3
2018-01-03T14:04:57.326Z,4.0
2018-01-03T14:06:00.284Z,4.0
2018-01-03T14:07:03.039Z,3.6
2018-01-03T14:08:05.083Z,4.0
2018-01-03T14:09:09.757Z,3.6
2018-01-03T14:10:11.778Z,3.7
2018-01-03T14:11:14.577Z,4.5
2018-01-03T14:12:16.424Z,3.6
2018-01-03T14:13:18.498Z,3.8
2018-01-03T14:14:20.458Z,4.0
2018-01-03T14:15:23.398Z,3.5
2018-01-03T14:16:25.409Z,3.4
2018-01-03T14:17:27.177Z,3.5
2018-01-03T14:18:28.905Z,3.8
2018-01-03T14:19:31.760Z,3.4
2018-01-03T14:20:33.790Z,3.6
2018-01-03T14:21:35.814Z,3.9
2018-01-03T14:22:37.657Z,3.4
2018-01-03T14:23:39.642Z,3.5
2018-01-03T14:24:41.530Z,3.3
2018-01-03T14:25:43.926Z,3.2
2018-01-03T14:26:45.786Z,3.1
2018-01-03T14:27:47.841Z,3.5
2018-01-03T14:28:49.784Z,3.0
2018-01-03T14:29:51.816Z,3.6
2018-01-03T14:30:53.768Z,3.0
2018-01-03T14:31:55.743Z,3.0
2018-01-03T14:32:57.813Z,3.4
2018-01-03T14:34:00.073Z,3.3
2018-01-03T14:35:02.106Z,3.7
2018-01-03T14:36:04.177Z,3.1
2018-01-03T14:37:06.193Z,3.3
2018-01-03T14:38:10.893Z,3.4
2018-01-03T14:39:13.778Z,3.4
2018-01-03T14:40:15.583Z,3.7
2018-01-03T14:41:17.526Z,3.9
2018-01-03T14:42:19.705Z,3.7
2018-01-03T14:43:22.352Z,3.4
2018-01-03T14:44:24.281Z,3.1
2018-01-03T14:45:26.191Z,3.7
2018-01-03T14:46:28.225Z,3.7
2018-01-03T14:47:30.220Z,3.5
2018-01-03T14:48:32.246Z,3.8
2018-01-03T14:49:34.139Z,4.2
2018-01-03T14:50:42.785Z,4.1
2018-01-03T14:51:44.571Z,4.5
2018-01-03T14:52:47.281Z,3.9
2018-01-03T14:53:49.066Z,3.9
2018-01-03T14:54:50.999Z,4.0
2018-01-03T14:55:52.839Z,5.5
2018-01-03T14:56:54.695Z,4.6
2018-01-03T14:57:57.518Z,4.5
2018-01-03T14:58:59.467Z,4.2
2018-01-03T15:00:02.292Z,5.2
2018-01-03T15:01:04.243Z,4.9
2018-01-03T15:02:06.823Z,4.3
2018-01-03T15:03:08.880Z,4.6
2018-01-03T15:04:10.930Z,4.2
2018-01-03T15:05:12.916Z,4.2
2018-01-03T15:06:14.816Z,4.1
2018-01-03T15:07:16.598Z,4.6
2018-01-03T15:08:18.435Z,3.7
2018-01-03T15:09:20.410Z,3.8
2018-01-03T15:10:22.234Z,5.3
2018-01-03T15:11:24.746Z,4.5
2018-01-03T15:12:26.701Z,4.8
2018-01-03T15:13:28.957Z,5.2
2018-01-03T15:14:30.787Z,4.3
2018-01-03T15:15:32.802Z,4.1
2018-01-03T15:16:34.582Z,3.8
2018-01-03T15:17:37.356Z,3.6
2018-01-03T15:18:39.246Z,3.9
2018-01-03T15:19:41.185Z,3.7
2018-01-03T15:20:43.071Z,4.0
2018-01-03T15:21:45.023Z,3.8
2018-01-03T15:22:47.083Z,4.0
2018-01-03T15:23:49.134Z,4.1
2018-01-03T15:24:51.068Z,4.0
2018-01-03T15:25:53.071Z,4.0
2018-01-03T15:26:57.682Z,3.4
2018-01-03T15:28:00.435Z,4.3
2018-01-03T15:29:02.836Z,4.1
2018-01-03T15:30:09.983Z,3.9
2018-01-03T15:31:11.620Z,3.7
2018-01-03T15:32:13.750Z,4.1
2018-01-03T15:33:15.794Z,4.7
2018-01-03T15:34:17.824Z,4.7
2018-01-03T15:35:19.845Z,4.1
2018-01-03T15:36:21.769Z,4.4
2018-01-03T15:37:24.447Z,4.7
2018-01-03T15:38:26.479Z,5.1
2018-01-03T15:39:28.367Z,4.6
2018-01-03T15:40:30.814Z,3.9
2018-01-03T15:41:32.898Z,4.5
2018-01-03T15:42:35.806Z,4.6
2018-01-03T15:43:37.812Z,5.0
2018-01-03T15:44:39.863Z,4.9
2018-01-03T15:45:41.735Z,4.8
2018-01-03T15:46:43.605Z,4.7
2018-01-03T15:47:46.075Z,4.5
2018-01-03T15:48:48.048Z,4.6
2018-01-03T15:49:50.443Z,5.3
2018-01-03T15:50:52.735Z,5.4
2018-01-03T15:51:55.189Z,5.0
2018-01-03T15:52:57.331Z,4.6
2018-01-03T15:53:59.655Z,3.9
2018-01-03T15:55:02.789Z,4.7
2018-01-03T15:56:05.030Z,4.9
2018-01-03T15:57:07.460Z,4.7
2018-01-03T15:58:09.962Z,4.0
2018-01-03T15:59:12.777Z,3.8
2018-01-03T16:00:15.010Z,4.2
2018-01-03T16:01:17.133Z,4.3
2018-01-03T16:02:19.324Z,4.6
2018-01-03T16:03:21.437Z,4.3
2018-01-03T16:04:23.671Z,4.2
2018-01-03T16:05:25.833Z,4.2
2018-01-03T16:06:28.293Z,4.5
2018-01-03T16:07:31.033Z,4.5
2018-01-03T16:08:33.476Z,4.4
2018-01-03T16:09:35.865Z,4.9
2018-01-03T16:10:38.084Z,4.6
2018-01-03T16:11:40.711Z,4.4
2018-01-03T16:12:42.858Z,4.5
2018-01-03T16:13:44.935Z,4.9
2018-01-03T16:14:47.127Z,4.8
2018-01-03T16:15:49.285Z,4.2
2018-01-03T16:16:51.914Z,4.3
2018-01-03T16:17:54.463Z,4.8
2018-01-03T16:18:57.849Z,4.6
2018-01-03T16:19:59.974Z,4.4
2018-01-03T16:21:01.966Z,4.2
2018-01-03T16:24:05.632Z,4.3
2018-01-03T16:25:09.040Z,3.8
2018-01-03T16:26:11.117Z,4.1
2018-01-03T16:27:13.971Z,4.1
2018-01-03T16:28:16.808Z,4.4
2018-01-03T16:29:19.095Z,4.1
2018-01-03T16:30:21.226Z,4.7
2018-01-03T16:31:23.436Z,5.1
2018-01-03T16:32:28.034Z,5.2
2018-01-03T16:33:32.351Z,5.3
2018-01-03T16:34:35.364Z,4.7
2018-01-03T16:35:37.632Z,5.1
2018-01-03T16:36:39.967Z,5.3
2018-01-03T16:37:42.205Z,5.2
2018-01-03T16:38:44.470Z,5.6
2018-01-03T16:39:48.119Z,5.8
2018-01-03T16:40:50.461Z,5.2
2018-01-03T16:41:52.417Z,5.7
2018-01-03T16:42:55.234Z,5.3
2018-01-03T16:43:58.256Z,5.6
2018-01-03T16:45:00.512Z,6.3
2018-01-03T16:46:02.806Z,5.4
2018-01-03T16:47:05.176Z,5.7
2018-01-03T16:48:07.917Z,5.5
2018-01-03T16:49:10.163Z,5.5
2018-01-03T16:50:12.907Z,5.3
2018-01-03T16:51:15.681Z,5.1
2018-01-03T16:52:18.104Z,5.3
2018-01-03T16:53:20.501Z,5.7
2018-01-03T16:54:22.663Z,6.1
2018-01-03T16:55:25.361Z,6.1
2018-01-03T16:56:27.875Z,6.1
2018-01-03T16:57:30.200Z,5.8
2018-01-03T16:58:32.363Z,6.2
2018-01-03T16:59:34.854Z,6.5
2018-01-03T17:00:37.924Z,6.5
2018-01-03T17:01:40.791Z,6.4
2018-01-03T17:02:42.898Z,6.6
2018-01-03T17:03:47.356Z,7.1
2018-01-03T17:04:49.124Z,7.7
2018-01-03T17:05:51.567Z,7.2
2018-01-03T17:06:54.268Z,7.4
2018-01-03T17:07:58.357Z,8.6
2018-01-03T17:09:00.722Z,8.3
2018-01-03T17:10:03.353Z,7.4
2018-01-03T17:11:06.200Z,8.3
2018-01-03T17:12:08.331Z,8.4
2018-01-03T17:13:10.349Z,7.0
2018-01-03T17:14:12.723Z,8.3
2018-01-03T17:15:15.151Z,7.9
2018-01-03T17:16:17.610Z,7.7
2018-01-03T17:17:20.201Z,6.7
2018-01-03T17:18:22.361Z,5.8
2018-01-03T17:19:25.393Z,5.3
2018-01-03T17:20:27.620Z,5.0
2018-01-03T17:21:30.045Z,5.1
2018-01-03T17:22:32.500Z,5.5
2018-01-03T17:23:34.732Z,5.3
2018-01-03T17:24:39.139Z,4.7
2018-01-03T17:25:41.801Z,5.6
2018-01-03T17:26:44.212Z,5.6
2018-01-03T17:27:49.459Z,6.4
2018-01-03T17:28:51.758Z,5.9
2018-01-03T17:29:54.121Z,6.1
2018-01-03T17:30:56.859Z,6.7
2018-01-03T17:32:00.784Z,6.8
2018-01-03T17:33:03.190Z,6.9
2018-01-03T17:34:05.713Z,7.3
2018-01-03T17:35:08.071Z,7.0
2018-01-03T17:36:11.686Z,6.6
2018-01-03T17:37:14.064Z,7.3
2018-01-03T17:38:16.307Z,6.7
2018-01-03T17:39:20.235Z,6.1
2018-01-03T17:40:22.563Z,7.4
2018-01-03T17:41:25.047Z,7.5
2018-01-03T17:42:28.998Z,6.8
2018-01-03T17:43:33.563Z,7.3
2018-01-03T17:44:35.954Z,6.9
2018-01-03T17:45:38.396Z,6.4
2018-01-03T17:46:41.380Z,8.2
2018-01-03T17:47:43.755Z,7.2
2018-01-03T17:48:46.081Z,7.0
2018-01-03T17:49:48.574Z,6.8
2018-01-03T17:50:52.163Z,6.8
2018-01-03T17:51:54.276Z,6.9
2018-01-03T17:52:56.691Z,6.6
2018-01-03T17:53:58.850Z,7.2
2018-01-03T17:55:01.710Z,7.0
2018-01-03T17:56:04.072Z,7.4
2018-01-03T17:57:07.024Z,6.9
2018-01-03T17:58:09.150Z,6.5
2018-01-03T17:59:11.260Z,6.5
2018-01-03T18:00:14.683Z,7.5
2018-01-03T18:01:17.283Z,7.1
2018-01-03T18:02:19.451Z,6.8
2018-01-03T18:03:23.165Z,6.9
2018-01-03T18:04:25.039Z,7.0
2018-01-03T18:05:28.329Z,7.2
2018-01-03T18:06:30.714Z,6.9
2018-01-03T18:07:32.823Z,6.6
2018-01-03T18:08:34.934Z,6.6
2018-01-03T18:09:37.227Z,6.9
2018-01-03T18:10:39.450Z,6.7
2018-01-03T18:11:41.860Z,6.3
2018-01-03T18:12:44.235Z,6.3
2018-01-03T18:13:46.575Z,6.6
2018-01-03T18:14:48.777Z,6.3
2018-01-03T18:15:51.328Z,7.3
2018-01-03T18:16:53.751Z,6.1
2018-01-03T18:17:55.980Z,6.6
2018-01-03T18:18:58.221Z,6.6
2018-01-03T18:20:00.383Z,6.6
2018-01-03T18:21:02.638Z,6.1
2018-01-03T18:22:05.495Z,5.9
2018-01-03T18:23:07.989Z,7.0
2018-01-03T18:24:10.511Z,6.1
2018-01-03T18:25:12.737Z,6.6
2018-01-03T18:26:15.136Z,6.8
2018-01-03T18:27:17.654Z,6.3
2018-01-03T18:28:19.961Z,6.4
2018-01-03T18:29:23.110Z,6.2
2018-01-03T18:30:25.449Z,6.3
2018-01-03T18:31:28.239Z,6.9
2018-01-03T18:32:30.982Z,6.7
2018-01-03T18:33:33.298Z,8.5
2018-01-03T18:34:35.802Z,8.0
2018-01-03T18:35:38.041Z,8.6
2018-01-03T18:36:40.288Z,7.1
2018-01-03T18:37:42.351Z,7.1
2018-01-03T18:38:44.496Z,8.3
2018-01-03T18:39:46.481Z,7.4
2018-01-03T18:40:48.350Z,8.1
2018-01-03T18:41:50.496Z,7.8
2018-01-03T18:42:52.475Z,7.0
2018-01-03T18:43:54.565Z,7.8
2018-01-03T18:44:56.518Z,7.6
2018-01-03T18:45:58.624Z,7.1
2018-01-03T18:47:00.574Z,7.8
2018-01-03T18:48:02.606Z,7.3
2018-01-03T18:49:05.569Z,8.1
2018-01-03T18:50:07.420Z,8.5
2018-01-03T18:51:09.484Z,7.9
2018-01-03T18:52:11.310Z,8.6
2018-01-03T18:53:13.254Z,7.9
2018-01-03T18:54:15.170Z,7.9
2018-01-03T18:55:17.252Z,8.5
2018-01-03T18:56:19.431Z,8.3
2018-01-03T18:57:21.483Z,8.7
2018-01-03T18:58:23.482Z,8.6
2018-01-03T18:59:25.142Z,8.3
2018-01-03T19:00:28.078Z,8.5
2018-01-03T19:01:30.292Z,8.2
2018-01-03T19:02:32.358Z,7.8